sensor_id;sensor_type;location;lat;lon;timestamp;P1;durP1;ratioP1;P2;durP2;ratioP2
26080;SDS011;13991;51.174;4.438;2024-02-28T00:01:38;13.63;;;6.63;;
26080;SDS011;13991;51.174;4.438;2024-02-28T00:04:13;18.87;;;6.57;;
26080;SDS011;13991;51.174;4.438;2024-02-28T00:06:39;15.60;;;6.43;;
26080;SDS011;13991;51.174;4.438;2024-02-28T00:09:04;14.40;;;6.37;;
26080;SDS011;13991;51.174;4.438;2024-02-28T00:11:30;20.53;;;7.27;;
26080;SDS011;13991;51.174;4.438;2024-02-28T00:13:57;13.00;;;6.70;;
26080;SDS011;13991;51.174;4.438;2024-02-28T00:16:25;18.03;;;7.63;;
26080;SDS011;13991;51.174;4.438;2024-02-28T00:18:50;24.70;;;7.13;;
26080;SDS011;13991;51.174;4.438;2024-02-28T00:21:16;12.87;;;5.80;;
26080;SDS011;13991;51.174;4.438;2024-02-28T00:23:42;15.30;;;7.37;;
26080;SDS011;13991;51.174;4.438;2024-02-28T00:26:08;15.40;;;7.30;;
26080;SDS011;13991;51.174;4.438;2024-02-28T00:28:33;15.90;;;6.57;;
26080;SDS011;13991;51.174;4.438;2024-02-28T00:30:59;18.83;;;6.80;;
26080;SDS011;13991;51.174;4.438;2024-02-28T00:33:24;13.07;;;6.43;;
26080;SDS011;13991;51.174;4.438;2024-02-28T00:35:50;13.63;;;7.33;;
26080;SDS011;13991;51.174;4.438;2024-02-28T00:38:18;17.43;;;7.63;;
26080;SDS011;13991;51.174;4.438;2024-02-28T00:40:44;16.87;;;8.30;;
26080;SDS011;13991;51.174;4.438;2024-02-28T00:43:09;17.23;;;7.53;;
26080;SDS011;13991;51.174;4.438;2024-02-28T00:45:35;17.70;;;7.97;;
26080;SDS011;13991;51.174;4.438;2024-02-28T00:48:01;17.17;;;7.60;;
26080;SDS011;13991;51.174;4.438;2024-02-28T00:50:26;17.07;;;8.10;;
26080;SDS011;13991;51.174;4.438;2024-02-28T00:52:52;17.33;;;6.97;;
26080;SDS011;13991;51.174;4.438;2024-02-28T00:55:18;20.27;;;8.33;;
26080;SDS011;13991;51.174;4.438;2024-02-28T00:57:43;23.17;;;8.00;;
26080;SDS011;13991;51.174;4.438;2024-02-28T01:00:09;19.20;;;8.33;;
26080;SDS011;13991;51.174;4.438;2024-02-28T01:02:35;19.57;;;8.47;;
26080;SDS011;13991;51.174;4.438;2024-02-28T01:05:01;16.77;;;8.00;;
26080;SDS011;13991;51.174;4.438;2024-02-28T01:07:27;17.63;;;7.60;;
26080;SDS011;13991;51.174;4.438;2024-02-28T01:09:52;18.10;;;7.87;;
26080;SDS011;13991;51.174;4.438;2024-02-28T01:12:18;22.00;;;7.73;;
26080;SDS011;13991;51.174;4.438;2024-02-28T01:14:44;18.33;;;8.40;;
26080;SDS011;13991;51.174;4.438;2024-02-28T01:17:09;13.73;;;7.73;;
26080;SDS011;13991;51.174;4.438;2024-02-28T01:19:35;22.57;;;9.00;;
26080;SDS011;13991;51.174;4.438;2024-02-28T01:22:01;17.63;;;8.53;;
26080;SDS011;13991;51.174;4.438;2024-02-28T01:24:26;20.13;;;8.23;;
26080;SDS011;13991;51.174;4.438;2024-02-28T01:26:52;18.33;;;9.10;;
26080;SDS011;13991;51.174;4.438;2024-02-28T01:29:18;25.90;;;10.53;;
26080;SDS011;13991;51.174;4.438;2024-02-28T01:31:43;37.27;;;9.77;;
26080;SDS011;13991;51.174;4.438;2024-02-28T01:34:09;24.57;;;10.17;;
26080;SDS011;13991;51.174;4.438;2024-02-28T01:36:35;23.80;;;9.03;;
26080;SDS011;13991;51.174;4.438;2024-02-28T01:39:00;16.00;;;7.90;;
26080;SDS011;13991;51.174;4.438;2024-02-28T01:41:26;18.50;;;9.27;;
26080;SDS011;13991;51.174;4.438;2024-02-28T01:43:52;23.73;;;10.40;;
26080;SDS011;13991;51.174;4.438;2024-02-28T01:46:28;26.83;;;10.07;;
26080;SDS011;13991;51.174;4.438;2024-02-28T01:48:54;23.37;;;9.70;;
26080;SDS011;13991;51.174;4.438;2024-02-28T01:51:21;20.20;;;9.50;;
26080;SDS011;13991;51.174;4.438;2024-02-28T01:53:50;23.23;;;10.87;;
26080;SDS011;13991;51.174;4.438;2024-02-28T01:56:17;16.67;;;9.20;;
26080;SDS011;13991;51.174;4.438;2024-02-28T01:58:45;23.33;;;9.57;;
26080;SDS011;13991;51.174;4.438;2024-02-28T02:01:15;21.83;;;10.23;;
26080;SDS011;13991;51.174;4.438;2024-02-28T02:03:45;28.87;;;11.00;;
26080;SDS011;13991;51.174;4.438;2024-02-28T02:06:11;24.00;;;11.20;;
26080;SDS011;13991;51.174;4.438;2024-02-28T02:08:37;28.47;;;10.67;;
26080;SDS011;13991;51.174;4.438;2024-02-28T02:11:04;32.50;;;10.30;;
26080;SDS011;13991;51.174;4.438;2024-02-28T02:13:29;24.80;;;12.10;;
26080;SDS011;13991;51.174;4.438;2024-02-28T02:15:55;29.47;;;12.23;;
26080;SDS011;13991;51.174;4.438;2024-02-28T02:18:21;31.90;;;12.00;;
26080;SDS011;13991;51.174;4.438;2024-02-28T02:20:49;25.53;;;10.87;;
26080;SDS011;13991;51.174;4.438;2024-02-28T02:23:19;22.87;;;11.27;;
26080;SDS011;13991;51.174;4.438;2024-02-28T02:25:48;34.77;;;10.87;;
26080;SDS011;13991;51.174;4.438;2024-02-28T02:28:14;27.37;;;11.10;;
26080;SDS011;13991;51.174;4.438;2024-02-28T02:30:40;26.43;;;10.57;;
26080;SDS011;13991;51.174;4.438;2024-02-28T02:33:10;23.97;;;10.60;;
26080;SDS011;13991;51.174;4.438;2024-02-28T02:35:35;25.70;;;12.17;;
26080;SDS011;13991;51.174;4.438;2024-02-28T02:38:02;27.20;;;12.13;;
26080;SDS011;13991;51.174;4.438;2024-02-28T02:40:27;27.30;;;11.43;;
26080;SDS011;13991;51.174;4.438;2024-02-28T02:42:53;32.60;;;12.83;;
26080;SDS011;13991;51.174;4.438;2024-02-28T02:45:19;28.67;;;12.57;;
26080;SDS011;13991;51.174;4.438;2024-02-28T02:47:44;32.03;;;12.33;;
26080;SDS011;13991;51.174;4.438;2024-02-28T02:50:10;36.00;;;13.13;;
26080;SDS011;13991;51.174;4.438;2024-02-28T02:52:36;31.07;;;12.63;;
26080;SDS011;13991;51.174;4.438;2024-02-28T02:55:01;33.80;;;13.23;;
26080;SDS011;13991;51.174;4.438;2024-02-28T02:57:27;28.93;;;12.37;;
26080;SDS011;13991;51.174;4.438;2024-02-28T02:59:55;28.97;;;13.13;;
26080;SDS011;13991;51.174;4.438;2024-02-28T03:02:21;25.70;;;11.50;;
26080;SDS011;13991;51.174;4.438;2024-02-28T03:04:47;28.97;;;12.80;;
26080;SDS011;13991;51.174;4.438;2024-02-28T03:07:12;34.33;;;14.40;;
26080;SDS011;13991;51.174;4.438;2024-02-28T03:09:38;31.93;;;12.60;;
26080;SDS011;13991;51.174;4.438;2024-02-28T03:12:04;29.77;;;12.97;;
26080;SDS011;13991;51.174;4.438;2024-02-28T03:14:30;33.77;;;12.77;;
26080;SDS011;13991;51.174;4.438;2024-02-28T03:16:55;35.97;;;13.90;;
26080;SDS011;13991;51.174;4.438;2024-02-28T03:19:21;36.47;;;13.27;;
26080;SDS011;13991;51.174;4.438;2024-02-28T03:21:47;30.40;;;13.27;;
26080;SDS011;13991;51.174;4.438;2024-02-28T03:24:13;30.67;;;13.60;;
26080;SDS011;13991;51.174;4.438;2024-02-28T03:26:39;28.67;;;12.97;;
26080;SDS011;13991;51.174;4.438;2024-02-28T03:29:04;39.70;;;12.23;;
26080;SDS011;13991;51.174;4.438;2024-02-28T03:31:30;29.63;;;12.83;;
26080;SDS011;13991;51.174;4.438;2024-02-28T03:33:56;30.27;;;13.40;;
26080;SDS011;13991;51.174;4.438;2024-02-28T03:36:21;32.47;;;12.93;;
26080;SDS011;13991;51.174;4.438;2024-02-28T03:38:48;28.60;;;13.60;;
26080;SDS011;13991;51.174;4.438;2024-02-28T03:41:13;42.60;;;12.27;;
26080;SDS011;13991;51.174;4.438;2024-02-28T03:43:39;32.60;;;11.90;;
26080;SDS011;13991;51.174;4.438;2024-02-28T03:46:05;38.77;;;14.00;;
26080;SDS011;13991;51.174;4.438;2024-02-28T03:48:30;28.70;;;12.47;;
26080;SDS011;13991;51.174;4.438;2024-02-28T03:50:56;27.53;;;12.83;;
26080;SDS011;13991;51.174;4.438;2024-02-28T03:53:22;30.37;;;13.33;;
26080;SDS011;13991;51.174;4.438;2024-02-28T03:55:48;27.33;;;11.83;;
26080;SDS011;13991;51.174;4.438;2024-02-28T03:58:15;22.63;;;12.13;;
26080;SDS011;13991;51.174;4.438;2024-02-28T04:00:41;29.33;;;13.10;;
26080;SDS011;13991;51.174;4.438;2024-02-28T04:03:09;32.10;;;12.70;;
26080;SDS011;13991;51.174;4.438;2024-02-28T04:05:35;26.50;;;11.80;;
26080;SDS011;13991;51.174;4.438;2024-02-28T04:08:00;27.13;;;11.43;;
26080;SDS011;13991;51.174;4.438;2024-02-28T04:10:26;35.33;;;11.73;;
26080;SDS011;13991;51.174;4.438;2024-02-28T04:12:52;26.13;;;11.67;;
26080;SDS011;13991;51.174;4.438;2024-02-28T04:15:17;26.30;;;11.40;;
26080;SDS011;13991;51.174;4.438;2024-02-28T04:17:43;27.87;;;12.67;;
26080;SDS011;13991;51.174;4.438;2024-02-28T04:20:09;27.23;;;11.70;;
26080;SDS011;13991;51.174;4.438;2024-02-28T04:22:35;30.10;;;12.57;;
26080;SDS011;13991;51.174;4.438;2024-02-28T04:25:02;27.83;;;11.40;;
26080;SDS011;13991;51.174;4.438;2024-02-28T04:27:29;39.97;;;13.57;;
26080;SDS011;13991;51.174;4.438;2024-02-28T04:29:54;24.53;;;12.27;;
26080;SDS011;13991;51.174;4.438;2024-02-28T04:32:20;38.40;;;12.00;;
26080;SDS011;13991;51.174;4.438;2024-02-28T04:34:45;23.10;;;12.17;;
26080;SDS011;13991;51.174;4.438;2024-02-28T04:37:11;26.70;;;12.47;;
26080;SDS011;13991;51.174;4.438;2024-02-28T04:39:37;28.10;;;11.33;;
26080;SDS011;13991;51.174;4.438;2024-02-28T04:42:02;28.50;;;12.40;;
26080;SDS011;13991;51.174;4.438;2024-02-28T04:44:28;29.03;;;10.77;;
26080;SDS011;13991;51.174;4.438;2024-02-28T04:46:54;21.63;;;10.60;;
26080;SDS011;13991;51.174;4.438;2024-02-28T04:49:19;25.40;;;10.87;;
26080;SDS011;13991;51.174;4.438;2024-02-28T04:51:45;28.37;;;11.00;;
26080;SDS011;13991;51.174;4.438;2024-02-28T04:54:11;34.00;;;11.33;;
26080;SDS011;13991;51.174;4.438;2024-02-28T04:56:40;37.70;;;12.97;;
26080;SDS011;13991;51.174;4.438;2024-02-28T04:59:06;28.93;;;12.03;;
26080;SDS011;13991;51.174;4.438;2024-02-28T05:01:33;21.17;;;10.37;;
26080;SDS011;13991;51.174;4.438;2024-02-28T05:04:00;32.23;;;11.60;;
26080;SDS011;13991;51.174;4.438;2024-02-28T05:06:26;31.93;;;11.40;;
26080;SDS011;13991;51.174;4.438;2024-02-28T05:08:52;26.07;;;12.53;;
26080;SDS011;13991;51.174;4.438;2024-02-28T05:11:17;30.37;;;12.10;;
26080;SDS011;13991;51.174;4.438;2024-02-28T05:13:43;27.90;;;12.13;;
26080;SDS011;13991;51.174;4.438;2024-02-28T05:16:12;32.63;;;11.73;;
26080;SDS011;13991;51.174;4.438;2024-02-28T05:18:38;23.57;;;11.43;;
26080;SDS011;13991;51.174;4.438;2024-02-28T05:21:04;26.70;;;11.10;;
26080;SDS011;13991;51.174;4.438;2024-02-28T05:23:30;30.67;;;11.27;;
26080;SDS011;13991;51.174;4.438;2024-02-28T05:25:55;31.43;;;12.07;;
26080;SDS011;13991;51.174;4.438;2024-02-28T05:28:22;27.77;;;11.37;;
26080;SDS011;13991;51.174;4.438;2024-02-28T05:30:48;29.07;;;11.37;;
26080;SDS011;13991;51.174;4.438;2024-02-28T05:33:14;37.27;;;12.03;;
26080;SDS011;13991;51.174;4.438;2024-02-28T05:35:40;27.20;;;12.23;;
26080;SDS011;13991;51.174;4.438;2024-02-28T05:38:06;33.40;;;11.53;;
26080;SDS011;13991;51.174;4.438;2024-02-28T05:40:31;23.77;;;11.07;;
26080;SDS011;13991;51.174;4.438;2024-02-28T05:42:57;23.47;;;10.73;;
26080;SDS011;13991;51.174;4.438;2024-02-28T05:45:23;31.67;;;11.33;;
26080;SDS011;13991;51.174;4.438;2024-02-28T05:47:48;28.80;;;12.23;;
26080;SDS011;13991;51.174;4.438;2024-02-28T05:50:14;31.23;;;12.80;;
26080;SDS011;13991;51.174;4.438;2024-02-28T05:52:43;27.70;;;10.97;;
26080;SDS011;13991;51.174;4.438;2024-02-28T05:55:10;28.30;;;12.07;;
26080;SDS011;13991;51.174;4.438;2024-02-28T05:57:36;21.53;;;11.37;;
26080;SDS011;13991;51.174;4.438;2024-02-28T06:00:02;30.67;;;12.73;;
26080;SDS011;13991;51.174;4.438;2024-02-28T06:02:34;33.87;;;13.00;;
26080;SDS011;13991;51.174;4.438;2024-02-28T06:05:03;28.07;;;13.13;;
26080;SDS011;13991;51.174;4.438;2024-02-28T06:07:29;38.33;;;13.63;;
26080;SDS011;13991;51.174;4.438;2024-02-28T06:09:55;31.90;;;11.50;;
26080;SDS011;13991;51.174;4.438;2024-02-28T06:12:22;36.90;;;13.53;;
26080;SDS011;13991;51.174;4.438;2024-02-28T06:14:47;33.97;;;12.93;;
26080;SDS011;13991;51.174;4.438;2024-02-28T06:17:13;35.63;;;13.13;;
26080;SDS011;13991;51.174;4.438;2024-02-28T06:19:39;26.47;;;13.17;;
26080;SDS011;13991;51.174;4.438;2024-02-28T06:22:04;34.13;;;13.60;;
26080;SDS011;13991;51.174;4.438;2024-02-28T06:24:33;35.07;;;14.47;;
26080;SDS011;13991;51.174;4.438;2024-02-28T06:26:59;34.10;;;12.90;;
26080;SDS011;13991;51.174;4.438;2024-02-28T06:29:24;35.13;;;14.07;;
26080;SDS011;13991;51.174;4.438;2024-02-28T06:31:51;34.47;;;14.93;;
26080;SDS011;13991;51.174;4.438;2024-02-28T06:34:17;38.60;;;15.07;;
26080;SDS011;13991;51.174;4.438;2024-02-28T06:36:44;34.17;;;15.50;;
26080;SDS011;13991;51.174;4.438;2024-02-28T06:39:09;36.13;;;15.20;;
26080;SDS011;13991;51.174;4.438;2024-02-28T06:41:35;42.07;;;16.37;;
26080;SDS011;13991;51.174;4.438;2024-02-28T06:44:01;36.93;;;16.80;;
26080;SDS011;13991;51.174;4.438;2024-02-28T06:46:26;34.73;;;14.50;;
26080;SDS011;13991;51.174;4.438;2024-02-28T06:48:52;33.10;;;15.70;;
26080;SDS011;13991;51.174;4.438;2024-02-28T06:51:18;38.90;;;15.17;;
26080;SDS011;13991;51.174;4.438;2024-02-28T06:53:43;36.07;;;16.87;;
26080;SDS011;13991;51.174;4.438;2024-02-28T06:56:09;37.20;;;16.43;;
26080;SDS011;13991;51.174;4.438;2024-02-28T06:58:35;41.97;;;16.17;;
26080;SDS011;13991;51.174;4.438;2024-02-28T07:01:01;41.83;;;17.63;;
26080;SDS011;13991;51.174;4.438;2024-02-28T07:03:26;38.53;;;16.63;;
26080;SDS011;13991;51.174;4.438;2024-02-28T07:05:52;36.50;;;16.80;;
26080;SDS011;13991;51.174;4.438;2024-02-28T07:08:18;40.10;;;17.27;;
26080;SDS011;13991;51.174;4.438;2024-02-28T07:10:46;44.33;;;16.23;;
26080;SDS011;13991;51.174;4.438;2024-02-28T07:13:14;52.63;;;17.70;;
26080;SDS011;13991;51.174;4.438;2024-02-28T07:15:40;44.30;;;17.07;;
26080;SDS011;13991;51.174;4.438;2024-02-28T07:18:06;52.47;;;17.07;;
26080;SDS011;13991;51.174;4.438;2024-02-28T07:20:33;49.40;;;17.70;;
26080;SDS011;13991;51.174;4.438;2024-02-28T07:22:58;35.13;;;17.20;;
26080;SDS011;13991;51.174;4.438;2024-02-28T07:25:24;43.43;;;16.77;;
26080;SDS011;13991;51.174;4.438;2024-02-28T07:27:50;53.20;;;17.50;;
26080;SDS011;13991;51.174;4.438;2024-02-28T07:30:16;48.30;;;16.83;;
26080;SDS011;13991;51.174;4.438;2024-02-28T07:32:42;39.33;;;16.50;;
26080;SDS011;13991;51.174;4.438;2024-02-28T07:35:07;44.30;;;17.47;;
26080;SDS011;13991;51.174;4.438;2024-02-28T07:37:33;49.40;;;17.03;;
26080;SDS011;13991;51.174;4.438;2024-02-28T07:39:59;42.07;;;17.60;;
26080;SDS011;13991;51.174;4.438;2024-02-28T07:42:25;41.20;;;17.40;;
26080;SDS011;13991;51.174;4.438;2024-02-28T07:44:51;51.33;;;16.83;;
26080;SDS011;13991;51.174;4.438;2024-02-28T07:47:21;44.13;;;17.83;;
26080;SDS011;13991;51.174;4.438;2024-02-28T07:49:47;45.87;;;15.77;;
26080;SDS011;13991;51.174;4.438;2024-02-28T07:52:13;41.27;;;15.80;;
26080;SDS011;13991;51.174;4.438;2024-02-28T07:54:41;44.87;;;17.07;;
26080;SDS011;13991;51.174;4.438;2024-02-28T07:57:08;45.50;;;18.10;;
26080;SDS011;13991;51.174;4.438;2024-02-28T07:59:38;38.17;;;15.80;;
26080;SDS011;13991;51.174;4.438;2024-02-28T08:02:07;42.90;;;16.53;;
26080;SDS011;13991;51.174;4.438;2024-02-28T08:04:35;41.50;;;17.60;;
26080;SDS011;13991;51.174;4.438;2024-02-28T08:07:00;32.17;;;15.37;;
26080;SDS011;13991;51.174;4.438;2024-02-28T08:09:26;42.47;;;16.53;;
26080;SDS011;13991;51.174;4.438;2024-02-28T08:11:53;40.83;;;16.90;;
26080;SDS011;13991;51.174;4.438;2024-02-28T08:14:18;43.53;;;16.37;;
26080;SDS011;13991;51.174;4.438;2024-02-28T08:16:45;44.17;;;16.03;;
26080;SDS011;13991;51.174;4.438;2024-02-28T08:19:10;42.33;;;16.13;;
26080;SDS011;13991;51.174;4.438;2024-02-28T08:21:36;45.40;;;17.57;;
26080;SDS011;13991;51.174;4.438;2024-02-28T08:24:02;42.57;;;16.90;;
26080;SDS011;13991;51.174;4.438;2024-02-28T08:26:30;38.80;;;16.70;;
26080;SDS011;13991;51.174;4.438;2024-02-28T08:28:56;46.53;;;17.17;;
26080;SDS011;13991;51.174;4.438;2024-02-28T08:31:21;38.63;;;15.57;;
26080;SDS011;13991;51.174;4.438;2024-02-28T08:33:47;42.50;;;16.53;;
26080;SDS011;13991;51.174;4.438;2024-02-28T08:36:13;42.70;;;15.53;;
26080;SDS011;13991;51.174;4.438;2024-02-28T08:38:40;44.53;;;17.80;;
26080;SDS011;13991;51.174;4.438;2024-02-28T08:41:06;40.07;;;16.77;;
26080;SDS011;13991;51.174;4.438;2024-02-28T08:43:42;55.25;;;21.27;;
26080;SDS011;13991;51.174;4.438;2024-02-28T08:46:07;51.20;;;18.20;;
26080;SDS011;13991;51.174;4.438;2024-02-28T08:48:33;42.83;;;17.30;;
26080;SDS011;13991;51.174;4.438;2024-02-28T08:50:59;42.40;;;17.10;;
26080;SDS011;13991;51.174;4.438;2024-02-28T08:53:25;44.53;;;16.73;;
26080;SDS011;13991;51.174;4.438;2024-02-28T08:55:51;48.70;;;17.10;;
26080;SDS011;13991;51.174;4.438;2024-02-28T08:58:16;50.60;;;18.20;;
26080;SDS011;13991;51.174;4.438;2024-02-28T09:00:42;68.53;;;19.33;;
26080;SDS011;13991;51.174;4.438;2024-02-28T09:03:08;57.37;;;16.93;;
26080;SDS011;13991;51.174;4.438;2024-02-28T09:05:34;54.20;;;18.10;;
26080;SDS011;13991;51.174;4.438;2024-02-28T09:08:00;63.07;;;18.93;;
26080;SDS011;13991;51.174;4.438;2024-02-28T09:10:25;61.77;;;18.00;;
26080;SDS011;13991;51.174;4.438;2024-02-28T09:12:51;54.43;;;19.80;;
26080;SDS011;13991;51.174;4.438;2024-02-28T09:15:17;60.50;;;20.30;;
26080;SDS011;13991;51.174;4.438;2024-02-28T09:17:43;70.33;;;19.70;;
26080;SDS011;13991;51.174;4.438;2024-02-28T09:20:09;57.17;;;18.00;;
26080;SDS011;13991;51.174;4.438;2024-02-28T09:22:35;61.53;;;18.10;;
26080;SDS011;13991;51.174;4.438;2024-02-28T09:25:01;75.10;;;20.27;;
26080;SDS011;13991;51.174;4.438;2024-02-28T09:27:30;71.73;;;20.40;;
26080;SDS011;13991;51.174;4.438;2024-02-28T09:29:56;72.97;;;19.37;;
26080;SDS011;13991;51.174;4.438;2024-02-28T09:32:21;78.00;;;19.03;;
26080;SDS011;13991;51.174;4.438;2024-02-28T09:34:48;76.87;;;21.77;;
26080;SDS011;13991;51.174;4.438;2024-02-28T09:37:14;70.40;;;20.03;;
26080;SDS011;13991;51.174;4.438;2024-02-28T09:39:41;67.87;;;20.77;;
26080;SDS011;13991;51.174;4.438;2024-02-28T09:42:07;60.90;;;20.10;;
26080;SDS011;13991;51.174;4.438;2024-02-28T09:44:35;69.53;;;20.17;;
26080;SDS011;13991;51.174;4.438;2024-02-28T09:47:01;63.43;;;19.30;;
26080;SDS011;13991;51.174;4.438;2024-02-28T09:49:28;72.73;;;20.57;;
26080;SDS011;13991;51.174;4.438;2024-02-28T09:51:57;55.40;;;18.10;;
26080;SDS011;13991;51.174;4.438;2024-02-28T09:54:24;61.00;;;19.23;;
26080;SDS011;13991;51.174;4.438;2024-02-28T09:56:50;56.27;;;18.23;;
26080;SDS011;13991;51.174;4.438;2024-02-28T09:59:17;59.30;;;18.67;;
26080;SDS011;13991;51.174;4.438;2024-02-28T10:01:44;67.80;;;19.40;;
26080;SDS011;13991;51.174;4.438;2024-02-28T10:04:18;53.40;;;17.40;;
26080;SDS011;13991;51.174;4.438;2024-02-28T10:06:45;63.67;;;16.90;;
26080;SDS011;13991;51.174;4.438;2024-02-28T10:09:13;50.53;;;17.00;;
26080;SDS011;13991;51.174;4.438;2024-02-28T10:11:40;48.60;;;16.57;;
26080;SDS011;13991;51.174;4.438;2024-02-28T10:14:08;45.20;;;14.77;;
26080;SDS011;13991;51.174;4.438;2024-02-28T10:16:34;48.20;;;16.03;;
26080;SDS011;13991;51.174;4.438;2024-02-28T10:19:00;43.00;;;16.47;;
26080;SDS011;13991;51.174;4.438;2024-02-28T10:21:25;53.50;;;15.93;;
26080;SDS011;13991;51.174;4.438;2024-02-28T10:23:51;58.37;;;17.67;;
26080;SDS011;13991;51.174;4.438;2024-02-28T10:26:17;58.73;;;15.47;;
26080;SDS011;13991;51.174;4.438;2024-02-28T10:28:43;43.20;;;14.13;;
26080;SDS011;13991;51.174;4.438;2024-02-28T10:31:11;49.90;;;14.00;;
26080;SDS011;13991;51.174;4.438;2024-02-28T10:33:37;42.23;;;14.00;;
26080;SDS011;13991;51.174;4.438;2024-02-28T10:36:03;40.07;;;14.73;;
26080;SDS011;13991;51.174;4.438;2024-02-28T10:38:30;38.97;;;12.93;;
26080;SDS011;13991;51.174;4.438;2024-02-28T10:40:58;38.77;;;13.53;;
26080;SDS011;13991;51.174;4.438;2024-02-28T10:43:25;34.70;;;12.60;;
26080;SDS011;13991;51.174;4.438;2024-02-28T10:45:55;41.77;;;12.37;;
26080;SDS011;13991;51.174;4.438;2024-02-28T10:48:23;38.93;;;12.00;;
26080;SDS011;13991;51.174;4.438;2024-02-28T10:50:50;41.00;;;13.20;;
26080;SDS011;13991;51.174;4.438;2024-02-28T10:53:16;39.13;;;11.97;;
26080;SDS011;13991;51.174;4.438;2024-02-28T10:55:48;38.50;;;12.57;;
26080;SDS011;13991;51.174;4.438;2024-02-28T10:58:17;33.10;;;12.30;;
26080;SDS011;13991;51.174;4.438;2024-02-28T11:00:47;29.27;;;10.07;;
26080;SDS011;13991;51.174;4.438;2024-02-28T11:03:16;41.97;;;11.27;;
26080;SDS011;13991;51.174;4.438;2024-02-28T11:05:50;31.83;;;10.37;;
26080;SDS011;13991;51.174;4.438;2024-02-28T11:08:20;23.80;;;10.33;;
26080;SDS011;13991;51.174;4.438;2024-02-28T11:10:54;30.80;;;9.57;;
26080;SDS011;13991;51.174;4.438;2024-02-28T11:13:24;25.20;;;9.13;;
26080;SDS011;13991;51.174;4.438;2024-02-28T11:15:50;28.83;;;9.13;;
26080;SDS011;13991;51.174;4.438;2024-02-28T11:18:17;25.37;;;9.30;;
26080;SDS011;13991;51.174;4.438;2024-02-28T11:20:43;21.20;;;7.67;;
26080;SDS011;13991;51.174;4.438;2024-02-28T11:23:09;25.13;;;8.93;;
26080;SDS011;13991;51.174;4.438;2024-02-28T11:25:35;21.97;;;8.47;;
26080;SDS011;13991;51.174;4.438;2024-02-28T11:28:01;21.63;;;9.10;;
26080;SDS011;13991;51.174;4.438;2024-02-28T11:30:27;18.20;;;8.50;;
26080;SDS011;13991;51.174;4.438;2024-02-28T11:32:53;16.67;;;7.37;;
26080;SDS011;13991;51.174;4.438;2024-02-28T11:35:19;18.37;;;7.70;;
26080;SDS011;13991;51.174;4.438;2024-02-28T11:37:46;24.03;;;7.67;;
26080;SDS011;13991;51.174;4.438;2024-02-28T11:40:16;21.67;;;7.57;;
26080;SDS011;13991;51.174;4.438;2024-02-28T11:42:41;16.37;;;7.07;;
26080;SDS011;13991;51.174;4.438;2024-02-28T11:45:10;15.00;;;6.43;;
26080;SDS011;13991;51.174;4.438;2024-02-28T11:47:36;18.93;;;7.60;;
26080;SDS011;13991;51.174;4.438;2024-02-28T11:50:04;16.37;;;7.40;;
26080;SDS011;13991;51.174;4.438;2024-02-28T11:52:30;23.13;;;8.07;;
26080;SDS011;13991;51.174;4.438;2024-02-28T11:54:56;15.77;;;6.73;;
26080;SDS011;13991;51.174;4.438;2024-02-28T11:57:22;18.90;;;8.27;;
26080;SDS011;13991;51.174;4.438;2024-02-28T11:59:48;18.47;;;7.30;;
26080;SDS011;13991;51.174;4.438;2024-02-28T12:02:15;19.63;;;7.10;;
26080;SDS011;13991;51.174;4.438;2024-02-28T12:04:50;25.43;;;7.73;;
26080;SDS011;13991;51.174;4.438;2024-02-28T12:07:15;16.07;;;7.50;;
26080;SDS011;13991;51.174;4.438;2024-02-28T12:09:41;15.97;;;7.17;;
26080;SDS011;13991;51.174;4.438;2024-02-28T12:12:09;18.27;;;7.53;;
26080;SDS011;13991;51.174;4.438;2024-02-28T12:14:37;24.10;;;8.23;;
26080;SDS011;13991;51.174;4.438;2024-02-28T12:17:03;25.90;;;8.00;;
26080;SDS011;13991;51.174;4.438;2024-02-28T12:19:29;15.03;;;7.10;;
26080;SDS011;13991;51.174;4.438;2024-02-28T12:21:55;21.13;;;8.23;;
26080;SDS011;13991;51.174;4.438;2024-02-28T12:24:21;23.00;;;7.53;;
26080;SDS011;13991;51.174;4.438;2024-02-28T12:26:47;19.43;;;7.67;;
26080;SDS011;13991;51.174;4.438;2024-02-28T12:29:12;19.03;;;7.57;;
26080;SDS011;13991;51.174;4.438;2024-02-28T12:31:39;19.13;;;8.30;;
26080;SDS011;13991;51.174;4.438;2024-02-28T12:34:05;18.20;;;7.60;;
26080;SDS011;13991;51.174;4.438;2024-02-28T12:36:30;29.30;;;8.17;;
26080;SDS011;13991;51.174;4.438;2024-02-28T12:38:57;20.63;;;8.00;;
26080;SDS011;13991;51.174;4.438;2024-02-28T12:41:24;17.40;;;7.57;;
26080;SDS011;13991;51.174;4.438;2024-02-28T12:43:51;27.33;;;7.10;;
26080;SDS011;13991;51.174;4.438;2024-02-28T12:46:16;15.93;;;8.27;;
26080;SDS011;13991;51.174;4.438;2024-02-28T12:48:42;21.73;;;6.93;;
26080;SDS011;13991;51.174;4.438;2024-02-28T12:51:10;22.47;;;7.53;;
26080;SDS011;13991;51.174;4.438;2024-02-28T12:53:45;11.23;;;6.07;;
26080;SDS011;13991;51.174;4.438;2024-02-28T12:56:11;25.80;;;6.50;;
26080;SDS011;13991;51.174;4.438;2024-02-28T12:58:36;16.77;;;6.37;;
26080;SDS011;13991;51.174;4.438;2024-02-28T13:01:03;20.33;;;7.03;;
26080;SDS011;13991;51.174;4.438;2024-02-28T13:03:29;23.53;;;6.70;;
26080;SDS011;13991;51.174;4.438;2024-02-28T13:05:55;14.97;;;6.73;;
26080;SDS011;13991;51.174;4.438;2024-02-28T13:08:21;21.07;;;7.50;;
26080;SDS011;13991;51.174;4.438;2024-02-28T13:10:46;15.40;;;7.03;;
26080;SDS011;13991;51.174;4.438;2024-02-28T13:13:12;16.30;;;6.53;;
26080;SDS011;13991;51.174;4.438;2024-02-28T13:15:38;32.93;;;7.37;;
26080;SDS011;13991;51.174;4.438;2024-02-28T13:18:06;22.87;;;6.00;;
26080;SDS011;13991;51.174;4.438;2024-02-28T13:20:34;28.77;;;7.10;;
26080;SDS011;13991;51.174;4.438;2024-02-28T13:23:00;38.60;;;7.83;;
26080;SDS011;13991;51.174;4.438;2024-02-28T13:25:26;29.43;;;7.43;;
26080;SDS011;13991;51.174;4.438;2024-02-28T13:27:51;20.17;;;7.37;;
26080;SDS011;13991;51.174;4.438;2024-02-28T13:30:17;55.77;;;7.90;;
26080;SDS011;13991;51.174;4.438;2024-02-28T13:32:43;25.53;;;7.30;;
26080;SDS011;13991;51.174;4.438;2024-02-28T13:35:09;23.33;;;6.43;;
26080;SDS011;13991;51.174;4.438;2024-02-28T13:37:35;14.10;;;6.23;;
26080;SDS011;13991;51.174;4.438;2024-02-28T13:40:02;17.43;;;5.50;;
26080;SDS011;13991;51.174;4.438;2024-02-28T13:42:29;11.53;;;4.97;;
26080;SDS011;13991;51.174;4.438;2024-02-28T13:44:58;15.67;;;4.70;;
26080;SDS011;13991;51.174;4.438;2024-02-28T13:47:24;12.43;;;4.50;;
26080;SDS011;13991;51.174;4.438;2024-02-28T13:49:49;12.30;;;4.60;;
26080;SDS011;13991;51.174;4.438;2024-02-28T13:52:15;11.93;;;3.90;;
26080;SDS011;13991;51.174;4.438;2024-02-28T13:54:41;11.40;;;4.07;;
26080;SDS011;13991;51.174;4.438;2024-02-28T13:57:07;30.17;;;3.70;;
26080;SDS011;13991;51.174;4.438;2024-02-28T13:59:32;8.90;;;3.63;;
26080;SDS011;13991;51.174;4.438;2024-02-28T14:01:59;6.47;;;3.30;;
26080;SDS011;13991;51.174;4.438;2024-02-28T14:04:25;10.67;;;3.77;;
26080;SDS011;13991;51.174;4.438;2024-02-28T14:06:50;14.33;;;4.43;;
26080;SDS011;13991;51.174;4.438;2024-02-28T14:09:16;12.83;;;4.80;;
26080;SDS011;13991;51.174;4.438;2024-02-28T14:11:42;11.80;;;5.53;;
26080;SDS011;13991;51.174;4.438;2024-02-28T14:14:07;17.00;;;5.20;;
26080;SDS011;13991;51.174;4.438;2024-02-28T14:16:33;12.93;;;5.03;;
26080;SDS011;13991;51.174;4.438;2024-02-28T14:18:59;10.87;;;4.67;;
26080;SDS011;13991;51.174;4.438;2024-02-28T14:21:25;11.87;;;4.60;;